Time;durP1;ratioP1;P1;durP2;ratioP2;P2;SDS_P1;SDS_P2;PMS_P1;PMS_P2;Temp;Humidity;BMP_temperature;BMP_pressure;BME280_temperature;BME280_humidity;BME280_pressure;Samples;Min_cycle;Max_cycle;Signal;HPM_P1;HPM_P2
2020/12/14 00:02:03;;;;;;;5.40;2.67;;;8.30;99.90;;;;;;5071824;28;20915;-76
2020/12/14 00:04:28;;;;;;;5.97;2.70;;;8.40;99.90;;;;;;5072563;28;20170;-77
2020/12/14 00:06:54;;;;;;;8.07;4.33;;;8.30;99.90;;;;;;5071456;28;20618;-77
2020/12/14 00:09:19;;;;;;;4.00;2.20;;;8.30;99.90;;;;;;5076275;28;20186;-77
2020/12/14 00:11:45;;;;;;;5.83;2.80;;;8.40;99.90;;;;;;5076778;28;20186;-77
2020/12/14 00:14:10;;;;;;;4.00;2.80;;;8.30;99.90;;;;;;5076442;28;20181;-74
2020/12/14 00:16:36;;;;;;;5.57;2.10;;;8.40;99.90;;;;;;5076586;28;20273;-74
2020/12/14 00:19:01;;;;;;;2.23;1.80;;;8.50;99.90;;;;;;5076474;28;20235;-72
2020/12/14 00:21:27;;;;;;;5.30;1.93;;;8.40;99.90;;;;;;5076346;28;20251;-73
2020/12/14 00:23:52;;;;;;;5.50;2.33;;;8.50;99.90;;;;;;5076357;28;20215;-72
2020/12/14 00:26:19;;;;;;;5.60;2.73;;;8.50;99.90;;;;;;5075942;28;20321;-73
2020/12/14 00:28:48;;;;;;;5.00;2.30;;;8.40;99.90;;;;;;5076357;28;20178;-73
2020/12/14 00:31:17;;;;;;;3.70;2.10;;;8.50;99.90;;;;;;5076118;28;20916;-73
2020/12/14 00:33:45;;;;;;;2.60;2.00;;;8.50;99.90;;;;;;5075875;28;20428;-73
2020/12/14 00:36:12;;;;;;;3.77;2.20;;;8.50;99.90;;;;;;5076068;28;20429;-73
2020/12/14 00:38:38;;;;;;;7.27;3.17;;;8.50;99.90;;;;;;5076210;28;20421;-78
2020/12/14 00:41:04;;;;;;;3.50;2.10;;;8.60;99.90;;;;;;5075976;28;20467;-78
2020/12/14 00:43:30;;;;;;;7.77;2.77;;;8.50;99.90;;;;;;5076274;28;20437;-79
2020/12/14 00:45:56;;;;;;;5.07;2.53;;;8.50;99.90;;;;;;5074722;28;20447;-79
2020/12/14 00:48:21;;;;;;;5.37;2.50;;;8.60;99.90;;;;;;5075823;28;20454;-79
2020/12/14 00:50:47;;;;;;;2.33;2.00;;;8.60;99.90;;;;;;5075794;28;20170;-75
2020/12/14 00:53:12;;;;;;;4.43;2.50;;;8.50;99.90;;;;;;5075808;28;20175;-75
2020/12/14 00:55:39;;;;;;;2.43;1.97;;;8.60;99.90;;;;;;5075839;28;20224;-75
2020/12/14 00:58:04;;;;;;;4.50;2.57;;;8.60;99.90;;;;;;5075741;28;20183;-75
2020/12/14 01:00:30;;;;;;;7.67;2.50;;;8.60;99.90;;;;;;5075814;28;20420;-75
2020/12/14 01:02:56;;;;;;;5.13;2.33;;;8.70;99.90;;;;;;5075651;28;20196;-75
2020/12/14 01:05:21;;;;;;;9.50;2.83;;;8.60;99.90;;;;;;5075470;28;20243;-80
2020/12/14 01:07:46;;;;;;;6.20;2.43;;;8.60;99.90;;;;;;5075563;28;20182;-75
2020/12/14 01:10:12;;;;;;;6.27;2.73;;;8.60;99.90;;;;;;5075598;28;20185;-75
2020/12/14 01:12:38;;;;;;;2.87;1.70;;;8.60;99.90;;;;;;5075606;28;20174;-75
2020/12/14 01:15:06;;;;;;;3.50;2.47;;;8.50;99.90;;;;;;5076251;28;20190;-75
2020/12/14 01:17:32;;;;;;;3.40;2.20;;;8.60;99.90;;;;;;5075696;28;20234;-77
2020/12/14 01:19:58;;;;;;;4.57;1.97;;;8.50;99.90;;;;;;5075839;28;20424;-77
2020/12/14 01:22:24;;;;;;;3.30;2.00;;;8.40;99.90;;;;;;5079659;28;20687;-77
2020/12/14 01:24:49;;;;;;;3.27;2.23;;;8.40;99.90;;;;;;5079163;28;20221;-77
2020/12/14 01:27:15;;;;;;;7.30;3.03;;;8.50;99.90;;;;;;5077499;28;20179;-77
2020/12/14 01:29:41;;;;;;;6.67;1.80;;;8.40;99.90;;;;;;5081153;28;20170;-77
2020/12/14 01:32:07;;;;;;;3.73;2.20;;;8.50;99.90;;;;;;5077281;28;20189;-77
2020/12/14 01:34:32;;;;;;;6.07;1.97;;;8.50;99.90;;;;;;5078343;28;20422;-75
2020/12/14 01:36:58;;;;;;;3.90;2.00;;;8.50;99.90;;;;;;5075006;28;20181;-73
2020/12/14 01:39:24;;;;;;;3.40;1.90;;;8.60;99.90;;;;;;5075198;28;20261;-73
2020/12/14 01:41:50;;;;;;;2.23;1.40;;;8.50;99.90;;;;;;5088496;28;20181;-81
2020/12/14 01:44:15;;;;;;;6.27;1.83;;;8.60;99.90;;;;;;5086236;28;20247;-75
2020/12/14 01:46:43;;;;;;;4.77;1.90;;;8.70;99.90;;;;;;5086631;28;20472;-75
2020/12/14 01:49:10;;;;;;;2.63;2.03;;;8.60;99.90;;;;;;5088342;28;20174;-75
2020/12/14 01:51:37;;;;;;;4.67;1.80;;;8.60;99.90;;;;;;5088883;28;20425;-75
2020/12/14 01:54:29;;;;;;;7.40;2.10;;;8.60;99.90;;;;;;5075839;28;20477;-73
2020/12/14 01:56:55;;;;;;;3.23;1.57;;;8.50;99.90;;;;;;5074900;28;20425;-74
2020/12/14 01:59:22;;;;;;;2.10;1.67;;;8.50;99.90;;;;;;5074512;28;20412;-74
2020/12/14 02:01:48;;;;;;;2.03;1.77;;;8.60;99.90;;;;;;5074622;28;20425;-76
2020/12/14 02:04:13;;;;;;;4.10;1.90;;;8.60;99.90;;;;;;5074334;28;20505;-76
2020/12/14 02:06:39;;;;;;;4.70;1.93;;;8.60;99.90;;;;;;5074440;28;20516;-76
2020/12/14 06:30:59;;;;;;;2.17;1.50;;;9.20;99.90;;;;;;5745891;23;20908;-73
2020/12/14 06:33:39;;;;;;;8.70;2.00;;;9.40;99.90;;;;;;4974494;28;20433;-70
2020/12/14 06:36:27;;;;;;;3.63;1.67;;;9.40;99.90;;;;;;4974480;28;20653;-83
2020/12/14 06:38:53;;;;;;;2.60;2.00;;;9.50;99.90;;;;;;4974369;28;20480;-81
2020/12/14 06:41:26;;;;;;;6.30;1.80;;;9.40;99.90;;;;;;4974486;28;20437;-79
2020/12/14 06:44:04;;;;;;;2.70;2.10;;;9.40;99.90;;;;;;4974540;28;20777;-79
2020/12/14 06:46:33;;;;;;;2.90;1.87;;;9.40;99.90;;;;;;4972789;28;20484;-81
2020/12/14 06:49:00;;;;;;;5.83;2.10;;;9.50;99.90;;;;;;4948280;28;20440;-81
2020/12/14 06:51:46;;;;;;;4.03;1.80;;;9.50;99.90;;;;;;4965797;28;20959;-80
2020/12/14 06:54:11;;;;;;;4.00;1.83;;;9.40;99.90;;;;;;4969782;28;20436;-79
2020/12/14 06:56:40;;;;;;;2.70;1.63;;;9.50;99.90;;;;;;4964417;28;20798;-80
2020/12/14 06:59:25;;;;;;;5.03;1.90;;;9.40;99.90;;;;;;4962605;28;20170;-79
2020/12/14 07:01:59;;;;;;;4.20;2.10;;;9.50;99.90;;;;;;4969288;28;20528;-81
2020/12/14 07:04:33;;;;;;;4.47;1.83;;;9.50;99.90;;;;;;4973595;28;20225;-80
2020/12/14 07:07:05;;;;;;;4.67;1.93;;;9.60;99.90;;;;;;4973842;28;20983;-81
2020/12/14 07:09:38;;;;;;;3.83;2.10;;;9.50;99.90;;;;;;4974197;28;20428;-82
2020/12/14 07:12:10;;;;;;;3.97;2.00;;;9.60;99.90;;;;;;4973947;28;20439;-80
2020/12/14 07:14:49;;;;;;;4.20;2.00;;;9.60;99.90;;;;;;4973597;28;20421;-77
2020/12/14 07:17:27;;;;;;;2.83;2.28;;;9.60;99.90;;;;;;4970877;28;20441;-84
2020/12/14 07:19:54;;;;;;;4.37;1.73;;;9.70;99.90;;;;;;5001272;23;20611;-84
2020/12/14 07:22:22;;;;;;;2.90;2.00;;;9.80;99.90;;;;;;4993793;28;20749;-84
2020/12/14 07:25:03;;;;;;;2.67;1.50;;;9.80;99.90;;;;;;4993211;28;20428;-84
2020/12/14 07:27:31;;;;;;;5.90;2.20;;;9.80;99.90;;;;;;4993702;28;20540;-82
2020/12/14 07:30:09;;;;;;;3.30;2.10;;;9.80;99.90;;;;;;4993385;28;20510;-82
2020/12/14 07:32:35;;;;;;;4.70;2.10;;;9.80;99.90;;;;;;4993246;28;20535;-81
2020/12/14 07:35:02;;;;;;;2.50;1.90;;;9.80;99.90;;;;;;4993151;28;20463;-80
2020/12/14 07:37:28;;;;;;;1.67;1.50;;;9.70;99.90;;;;;;4993614;28;20178;-82
2020/12/14 07:39:53;;;;;;;2.60;2.40;;;9.70;99.90;;;;;;4992810;28;20442;-83
2020/12/14 07:42:23;;;;;;;3.77;1.80;;;9.70;99.90;;;;;;4993705;28;20533;-82
2020/12/14 07:44:48;;;;;;;5.07;1.93;;;9.70;99.90;;;;;;4994283;28;20184;-81
2020/12/14 07:47:21;;;;;;;8.17;2.30;;;9.70;99.90;;;;;;4993908;28;20789;-82
2020/12/14 07:49:47;;;;;;;4.27;2.10;;;9.70;99.90;;;;;;4994242;28;20187;-90
2020/12/14 07:52:33;;;;;;;4.30;2.17;;;9.70;99.90;;;;;;4994164;28;20511;-82
2020/12/14 07:55:00;;;;;;;2.30;1.80;;;9.70;99.90;;;;;;4994408;28;20669;-82
2020/12/14 07:57:30;;;;;;;9.23;3.00;;;9.80;99.90;;;;;;4994191;28;20490;-84
2020/12/14 07:59:56;;;;;;;2.90;2.20;;;9.80;99.90;;;;;;4976538;28;20791;-83
2020/12/14 08:02:22;;;;;;;2.30;1.77;;;9.80;99.90;;;;;;4994256;28;20427;-86
2020/12/14 08:04:48;;;;;;;2.80;2.00;;;9.90;99.90;;;;;;4994132;28;20185;-82
2020/12/14 08:07:17;;;;;;;2.30;1.90;;;9.90;99.90;;;;;;4994499;28;20483;-81
2020/12/14 08:09:46;;;;;;;2.40;1.73;;;10.00;99.90;;;;;;4994042;28;20177;-81
2020/12/14 08:12:13;;;;;;;3.13;1.80;;;10.00;99.90;;;;;;4993775;28;20440;-81
2020/12/14 08:14:39;;;;;;;2.90;1.90;;;10.00;99.90;;;;;;4993935;28;20431;-82
2020/12/14 08:17:11;;;;;;;4.07;2.10;;;10.00;99.90;;;;;;4993893;28;20472;-82
2020/12/14 08:19:37;;;;;;;3.03;2.10;;;10.00;99.90;;;;;;4994059;28;20470;-82
2020/12/14 08:22:12;;;;;;;3.23;1.87;;;10.10;99.90;;;;;;4993970;28;20530;-81
2020/12/14 08:24:39;;;;;;;3.43;2.17;;;10.00;99.90;;;;;;4993661;28;20546;-81
2020/12/14 08:27:08;;;;;;;3.17;2.20;;;10.10;99.90;;;;;;4993576;28;20562;-82
2020/12/14 08:29:35;;;;;;;4.40;1.90;;;10.10;99.90;;;;;;4996218;28;20568;-80
2020/12/14 08:32:01;;;;;;;2.50;2.30;;;10.10;99.90;;;;;;4997379;28;20527;-83
2020/12/14 08:34:32;;;;;;;3.23;2.17;;;10.10;99.90;;;;;;4997489;28;20469;-81
2020/12/14 08:36:58;;;;;;;7.97;2.80;;;10.10;99.90;;;;;;4997444;28;20451;-81
2020/12/14 08:39:24;;;;;;;3.57;2.50;;;10.00;99.90;;;;;;4995746;28;20428;-67
2020/12/14 08:42:07;;;;;;;3.00;1.80;;;10.40;99.90;;;;;;4995869;28;20837;-67
2020/12/14 08:44:33;;;;;;;6.13;2.57;;;10.50;99.90;;;;;;4995855;28;20640;-67
2020/12/14 08:47:00;;;;;;;5.33;2.63;;;10.20;99.90;;;;;;4995818;28;20558;-67
2020/12/14 08:49:27;;;;;;;3.03;2.70;;;10.20;99.90;;;;;;4996767;28;20431;-84
2020/12/14 08:51:52;;;;;;;5.20;1.97;;;10.10;99.90;;;;;;4996554;28;20440;-81
2020/12/14 08:54:20;;;;;;;11.50;3.27;;;10.00;99.90;;;;;;4996320;28;20578;-81
2020/12/14 08:56:46;;;;;;;5.30;3.07;;;9.90;99.90;;;;;;4995970;28;20181;-82
2020/12/14 08:59:13;;;;;;;5.03;3.00;;;9.90;99.90;;;;;;4995838;28;20459;-82
2020/12/14 09:01:39;;;;;;;6.30;2.90;;;9.70;99.90;;;;;;4995608;28;20428;-81
2020/12/14 09:04:05;;;;;;;5.20;2.50;;;9.70;99.90;;;;;;4995631;28;20439;-81
2020/12/14 09:06:36;;;;;;;3.90;2.97;;;9.70;99.90;;;;;;4995719;28;20220;-81
2020/12/14 09:09:13;;;;;;;6.00;3.00;;;9.70;99.90;;;;;;4995750;28;20507;-82
2020/12/14 09:11:41;;;;;;;4.20;2.10;;;9.70;99.90;;;;;;4995982;28;20756;-82
2020/12/14 09:14:08;;;;;;;3.20;2.60;;;9.60;99.90;;;;;;4995705;28;20439;-82
2020/12/14 09:16:34;;;;;;;3.43;2.83;;;9.70;99.90;;;;;;4996008;28;20435;-82
2020/12/14 09:19:01;;;;;;;6.60;2.43;;;9.60;99.90;;;;;;4995672;28;20482;-82
2020/12/14 09:21:27;;;;;;;6.20;2.37;;;9.60;99.90;;;;;;4995886;28;20468;-82
2020/12/14 09:24:12;;;;;;;8.60;2.30;;;9.60;99.90;;;;;;4995787;28;20424;-82
2020/12/14 09:26:38;;;;;;;4.80;2.63;;;9.60;99.90;;;;;;4995622;28;20480;-81
2020/12/14 09:29:04;;;;;;;9.57;2.30;;;9.60;99.90;;;;;;4995548;28;20880;-82
2020/12/14 09:31:29;;;;;;;5.63;2.57;;;9.70;99.90;;;;;;4995401;28;20468;-82
2020/12/14 09:33:55;;;;;;;2.53;2.10;;;9.70;99.90;;;;;;4994767;28;20173;-81
2020/12/14 09:36:20;;;;;;;3.03;2.27;;;9.80;99.90;;;;;;4995962;28;20644;-82
2020/12/14 09:38:46;;;;;;;3.03;2.30;;;9.80;99.90;;;;;;4995973;28;20169;-82
2020/12/14 09:41:12;;;;;;;3.93;1.90;;;9.80;99.90;;;;;;4995900;28;20518;-82
2020/12/14 09:43:37;;;;;;;2.17;1.83;;;9.80;99.90;;;;;;4996188;28;20455;-83
2020/12/14 09:46:03;;;;;;;2.57;2.37;;;9.80;99.90;;;;;;4995821;28;20650;-82
2020/12/14 09:48:29;;;;;;;3.47;2.13;;;9.80;99.90;;;;;;4995854;28;20184;-82
2020/12/14 09:50:54;;;;;;;6.60;2.43;;;9.80;99.90;;;;;;4995770;28;20539;-82
2020/12/14 09:53:20;;;;;;;8.40;2.30;;;9.80;99.90;;;;;;4995956;28;20165;-81
2020/12/14 09:55:45;;;;;;;3.10;2.07;;;9.90;99.90;;;;;;4996127;28;20169;-89
2020/12/14 09:58:11;;;;;;;5.13;2.17;;;10.00;99.90;;;;;;4996595;28;20216;-91
2020/12/14 10:00:37;;;;;;;2.30;2.03;;;10.20;99.90;;;;;;4997059;28;20184;-87
2020/12/14 10:03:03;;;;;;;2.53;2.00;;;10.10;99.90;;;;;;4995779;28;20561;-88
2020/12/14 10:05:29;;;;;;;2.63;1.80;;;10.20;99.90;;;;;;4995736;28;20526;-87
2020/12/14 10:07:54;;;;;;;7.90;2.50;;;10.30;99.90;;;;;;4995577;28;20444;-88
2020/12/14 10:10:20;;;;;;;2.73;2.53;;;10.30;99.90;;;;;;4995800;28;20181;-86
2020/12/14 10:12:46;;;;;;;3.70;2.50;;;10.30;99.90;;;;;;4995524;28;20235;-84
2020/12/14 10:15:12;;;;;;;3.80;2.53;;;10.20;99.90;;;;;;4995680;28;20181;-83
2020/12/14 10:17:37;;;;;;;2.57;2.03;;;10.20;99.90;;;;;;4995538;28;20181;-79
2020/12/14 10:20:06;;;;;;;2.30;1.90;;;10.20;99.90;;;;;;4994895;28;20471;-79
2020/12/14 10:22:33;;;;;;;2.33;2.13;;;10.20;99.90;;;;;;4995253;28;20180;-78
2020/12/14 10:25:00;;;;;;;2.17;1.97;;;10.20;99.90;;;;;;4994987;28;20452;-81
2020/12/14 10:27:26;;;;;;;3.20;2.77;;;10.20;99.90;;;;;;4994963;28;20436;-81
2020/12/14 10:29:51;;;;;;;2.40;1.80;;;10.20;99.90;;;;;;4994938;28;20475;-79
2020/12/14 10:32:17;;;;;;;5.37;2.97;;;10.10;99.90;;;;;;4977548;28;20523;-81
2020/12/14 10:34:43;;;;;;;3.73;2.07;;;10.20;99.90;;;;;;4994885;28;20177;-84
2020/12/14 10:37:08;;;;;;;4.97;2.67;;;10.20;99.90;;;;;;4994865;28;20545;-79
2020/12/14 10:39:34;;;;;;;10.90;3.17;;;10.20;99.90;;;;;;4994942;28;20636;-81
2020/12/14 10:42:00;;;;;;;8.80;2.30;;;10.20;99.90;;;;;;4994739;28;20196;-80
2020/12/14 10:44:29;;;;;;;2.97;1.97;;;10.30;99.90;;;;;;4994578;28;20181;-84
2020/12/14 10:46:56;;;;;;;8.40;2.40;;;10.20;99.90;;;;;;4977040;28;20223;-82
2020/12/14 10:49:21;;;;;;;3.20;2.17;;;10.30;99.90;;;;;;4994630;28;20434;-80
2020/12/14 10:51:47;;;;;;;3.27;2.10;;;10.20;99.90;;;;;;4993987;28;20890;-77
2020/12/14 10:54:13;;;;;;;4.97;2.40;;;10.30;99.90;;;;;;4994328;28;20199;-73
2020/12/14 10:56:38;;;;;;;2.97;2.17;;;10.20;99.90;;;;;;4994563;28;20189;-80
2020/12/14 10:59:04;;;;;;;3.53;2.30;;;10.30;99.90;;;;;;4994382;28;20865;-82
2020/12/14 11:01:30;;;;;;;4.20;2.13;;;10.30;99.90;;;;;;4994535;28;20271;-81
2020/12/14 11:03:55;;;;;;;2.67;2.47;;;10.30;99.90;;;;;;4994369;28;20188;-82
2020/12/14 11:06:21;;;;;;;3.00;2.00;;;10.40;99.90;;;;;;4994365;28;20312;-87
2020/12/14 11:08:46;;;;;;;3.00;2.20;;;10.40;99.90;;;;;;4994314;28;20204;-81
2020/12/14 11:11:12;;;;;;;7.63;3.33;;;10.40;99.90;;;;;;4994425;28;20208;-81
2020/12/14 11:13:38;;;;;;;5.00;2.40;;;10.50;99.90;;;;;;4994405;28;20183;-82
2020/12/14 11:16:04;;;;;;;5.57;2.50;;;10.40;99.90;;;;;;4994272;28;20834;-81
2020/12/14 11:18:29;;;;;;;5.20;2.33;;;10.50;99.90;;;;;;4994028;28;20791;-80
2020/12/14 11:20:55;;;;;;;3.40;2.37;;;10.50;99.90;;;;;;4994409;28;20177;-80
2020/12/14 11:23:20;;;;;;;6.70;2.47;;;10.60;99.90;;;;;;4994436;28;20177;-85
2020/12/14 11:25:46;;;;;;;3.73;2.33;;;10.60;99.90;;;;;;4994363;28;20209;-83
2020/12/14 11:28:11;;;;;;;5.10;2.07;;;10.60;99.90;;;;;;4994386;28;20189;-81
2020/12/14 11:30:37;;;;;;;4.60;1.87;;;10.60;99.90;;;;;;4994527;28;20187;-80
2020/12/14 11:33:03;;;;;;;6.10;2.37;;;10.70;99.90;;;;;;4993987;28;20184;-81
2020/12/14 11:35:29;;;;;;;2.33;2.10;;;10.80;99.90;;;;;;4994189;28;20181;-80
2020/12/14 11:37:55;;;;;;;3.73;2.20;;;10.80;99.90;;;;;;4995909;28;20216;-81
2020/12/14 11:40:20;;;;;;;2.53;1.83;;;10.80;99.90;;;;;;5000894;28;20439;-81
2020/12/14 11:42:46;;;;;;;3.50;2.20;;;10.90;99.90;;;;;;4995954;28;20189;-79
2020/12/14 11:45:11;;;;;;;6.93;3.20;;;10.90;99.90;;;;;;4998816;28;20177;-80
2020/12/14 11:47:37;;;;;;;3.47;3.10;;;10.90;99.90;;;;;;5000013;28;20193;-80
2020/12/14 11:50:05;;;;;;;2.53;2.13;;;11.00;99.90;;;;;;4999506;28;20200;-80
2020/12/14 11:52:31;;;;;;;4.47;2.17;;;11.00;99.90;;;;;;4996865;28;20208;-81
2020/12/14 11:54:56;;;;;;;3.37;2.20;;;11.00;99.90;;;;;;4993928;28;20420;-82
2020/12/14 11:57:22;;;;;;;6.13;2.73;;;11.00;99.90;;;;;;4994933;28;20459;-82
2020/12/14 11:59:48;;;;;;;4.60;2.50;;;11.10;99.90;;;;;;4994071;28;20209;-82
2020/12/14 12:02:15;;;;;;;2.73;1.80;;;11.10;99.90;;;;;;4993708;28;20188;-83
2020/12/14 12:04:41;;;;;;;6.90;2.53;;;11.10;99.90;;;;;;4997037;28;20173;-77
2020/12/14 12:07:06;;;;;;;3.50;1.83;;;11.30;99.90;;;;;;4996412;28;20530;-79
2020/12/14 12:09:33;;;;;;;7.63;2.20;;;11.40;99.90;;;;;;4996710;28;20420;-79
2020/12/14 12:11:59;;;;;;;8.97;2.80;;;11.40;99.90;;;;;;4996792;28;20632;-81
2020/12/14 12:14:24;;;;;;;3.40;2.37;;;11.40;99.90;;;;;;4996452;28;20435;-80
2020/12/14 12:16:50;;;;;;;3.70;2.40;;;11.40;99.90;;;;;;4996453;28;20177;-78
2020/12/14 12:19:17;;;;;;;3.00;2.20;;;11.40;99.90;;;;;;4996236;28;20829;-78
2020/12/14 12:21:47;;;;;;;5.97;2.47;;;11.50;99.90;;;;;;4996348;28;20559;-74
2020/12/14 12:24:12;;;;;;;2.50;1.97;;;11.50;99.90;;;;;;4996214;28;20477;-78
2020/12/14 12:26:38;;;;;;;5.97;2.20;;;11.50;99.90;;;;;;4996253;28;20468;-78
2020/12/14 12:29:04;;;;;;;2.63;2.10;;;11.50;99.90;;;;;;4996228;28;20254;-78
2020/12/14 12:31:29;;;;;;;4.20;1.90;;;11.60;99.90;;;;;;4996094;28;20841;-79
2020/12/14 12:33:55;;;;;;;1.83;1.73;;;11.60;99.90;;;;;;4996038;28;20177;-77
2020/12/14 12:36:20;;;;;;;7.50;2.33;;;11.60;99.90;;;;;;4996133;28;20181;-77
2020/12/14 12:38:46;;;;;;;3.33;2.07;;;11.60;99.90;;;;;;4995922;28;20595;-77
2020/12/14 12:41:11;;;;;;;3.67;2.20;;;11.60;99.90;;;;;;4995881;28;20224;-77
2020/12/14 12:43:37;;;;;;;7.93;2.60;;;11.50;99.90;;;;;;4996010;28;20228;-76
2020/12/14 12:46:02;;;;;;;5.47;2.37;;;11.60;99.90;;;;;;4995756;28;20200;-76
2020/12/14 12:48:28;;;;;;;2.53;1.93;;;11.60;99.90;;;;;;4995825;28;20212;-77
2020/12/14 12:50:54;;;;;;;5.57;1.97;;;11.60;99.90;;;;;;4995777;28;20268;-77
2020/12/14 12:53:24;;;;;;;5.37;1.83;;;11.60;99.90;;;;;;4995802;28;20180;-76
2020/12/14 12:55:52;;;;;;;2.80;1.80;;;11.60;99.90;;;;;;4995630;28;20519;-76
2020/12/14 12:58:17;;;;;;;2.23;1.87;;;11.60;99.90;;;;;;4995075;28;20792;-76
2020/12/14 13:00:43;;;;;;;6.13;2.37;;;11.60;99.90;;;;;;4996156;28;20439;-76
2020/12/14 13:03:09;;;;;;;3.60;1.83;;;11.70;99.90;;;;;;4996134;28;20176;-76
2020/12/14 13:05:35;;;;;;;6.60;1.90;;;11.70;99.90;;;;;;4996113;28;20560;-76
2020/12/14 13:08:00;;;;;;;2.70;2.17;;;11.80;99.90;;;;;;4996300;28;20187;-76
2020/12/14 13:10:27;;;;;;;3.03;1.97;;;11.80;99.90;;;;;;4996360;28;20424;-76
2020/12/14 13:12:53;;;;;;;4.40;2.37;;;11.80;99.90;;;;;;4996234;28;20177;-76
2020/12/14 13:15:18;;;;;;;5.03;1.97;;;11.80;99.90;;;;;;4995695;28;20442;-76
2020/12/14 13:17:44;;;;;;;2.80;2.20;;;11.80;99.90;;;;;;4996144;28;20640;-76
2020/12/14 13:20:09;;;;;;;7.03;2.00;;;11.80;99.90;;;;;;4995858;28;20232;-76
2020/12/14 13:22:35;;;;;;;3.40;2.03;;;11.90;99.90;;;;;;4996188;28;20174;-76
2020/12/14 13:25:01;;;;;;;3.10;2.00;;;12.00;99.90;;;;;;4995882;28;20632;-76
2020/12/14 13:27:26;;;;;;;4.90;2.50;;;12.10;99.90;;;;;;4995969;28;20594;-76
2020/12/14 13:29:52;;;;;;;3.73;1.87;;;12.10;99.90;;;;;;4995906;28;20515;-76
2020/12/14 13:32:17;;;;;;;2.50;1.80;;;12.20;99.90;;;;;;4995952;28;20651;-76
2020/12/14 13:34:43;;;;;;;4.07;1.70;;;12.20;99.90;;;;;;4995791;28;20197;-76
2020/12/14 13:37:08;;;;;;;3.33;2.07;;;12.20;99.90;;;;;;4995670;28;20603;-76
2020/12/14 13:39:34;;;;;;;2.70;1.60;;;12.30;99.90;;;;;;4995768;28;20212;-76
2020/12/14 13:41:59;;;;;;;3.63;1.80;;;12.30;99.90;;;;;;4995714;28;20173;-76
2020/12/14 13:44:25;;;;;;;2.43;2.13;;;12.30;99.90;;;;;;4995709;28;20178;-76
2020/12/14 13:46:52;;;;;;;3.10;1.97;;;12.20;99.90;;;;;;4995710;28;20217;-76
2020/12/14 13:49:17;;;;;;;5.93;2.40;;;12.20;99.90;;;;;;4995610;28;20168;-76
2020/12/14 13:51:43;;;;;;;4.60;2.53;;;12.10;99.90;;;;;;4995590;28;20440;-76
2020/12/14 13:54:08;;;;;;;5.63;2.60;;;12.10;99.90;;;;;;4995395;28;20323;-76
2020/12/14 13:56:33;;;;;;;3.73;2.00;;;12.00;99.90;;;;;;4995438;28;20177;-76
2020/12/14 13:58:59;;;;;;;2.80;1.70;;;12.00;99.90;;;;;;4995327;28;20268;-76
2020/12/14 14:01:24;;;;;;;2.70;2.07;;;12.00;99.90;;;;;;4995393;28;20174;-76
2020/12/14 14:03:50;;;;;;;3.30;2.30;;;12.00;99.90;;;;;;4995283;28;20173;-76
2020/12/14 14:06:15;;;;;;;2.40;2.20;;;11.90;99.90;;;;;;4995094;28;20212;-76
2020/12/14 14:08:41;;;;;;;7.60;2.77;;;11.90;99.90;;;;;;4995154;28;20585;-76
2020/12/14 14:11:07;;;;;;;5.43;2.37;;;11.90;99.90;;;;;;4995070;28;20205;-76
2020/12/14 14:13:33;;;;;;;3.23;2.10;;;12.00;99.90;;;;;;4994374;28;20193;-76
2020/12/14 14:15:59;;;;;;;3.60;2.07;;;11.90;99.90;;;;;;4994852;28;20539;-76
2020/12/14 14:18:24;;;;;;;4.17;2.27;;;11.90;99.90;;;;;;4994818;28;20470;-76
2020/12/14 14:20:50;;;;;;;4.00;1.90;;;11.90;99.90;;;;;;4994940;28;20183;-76
2020/12/14 14:23:18;;;;;;;1.87;1.70;;;11.90;99.90;;;;;;4994868;28;20311;-76
2020/12/14 14:25:44;;;;;;;4.00;2.33;;;12.00;99.90;;;;;;4994022;28;20201;-76
2020/12/14 14:28:09;;;;;;;3.33;1.77;;;12.00;99.90;;;;;;4994697;28;21018;-76
2020/12/14 14:30:35;;;;;;;2.93;1.80;;;11.90;99.90;;;;;;4994744;28;20224;-76
2020/12/14 14:33:00;;;;;;;2.47;1.60;;;12.00;99.90;;;;;;4977225;28;20177;-76
2020/12/14 14:35:26;;;;;;;4.23;2.20;;;12.00;99.90;;;;;;4994609;28;20173;-76
2020/12/14 14:37:52;;;;;;;2.40;2.03;;;12.00;99.90;;;;;;4994686;28;20640;-76
2020/12/14 14:40:17;;;;;;;2.40;2.20;;;11.90;99.90;;;;;;4994501;28;20430;-76
2020/12/14 14:42:43;;;;;;;3.00;1.83;;;11.90;99.90;;;;;;4994526;28;20565;-76
2020/12/14 14:45:13;;;;;;;2.50;1.90;;;11.90;99.90;;;;;;4994363;28;20181;-76
2020/12/14 14:47:38;;;;;;;4.93;2.37;;;11.90;99.90;;;;;;4994518;28;20189;-76
2020/12/14 14:50:04;;;;;;;4.53;2.20;;;11.90;99.90;;;;;;4994420;28;20424;-76
2020/12/14 14:52:30;;;;;;;5.93;2.03;;;11.90;99.90;;;;;;4994389;28;20580;-76
2020/12/14 14:54:55;;;;;;;8.70;2.27;;;11.90;99.90;;;;;;4994313;28;20431;-76
2020/12/14 14:57:21;;;;;;;3.73;2.70;;;11.90;99.90;;;;;;4994387;28;20284;-76
2020/12/14 14:59:46;;;;;;;2.70;2.00;;;11.90;99.90;;;;;;4994267;28;20173;-76
2020/12/14 15:02:12;;;;;;;4.63;1.77;;;11.90;99.90;;;;;;4994221;28;20204;-76
2020/12/14 15:04:37;;;;;;;3.00;2.50;;;11.90;99.90;;;;;;4994188;28;20181;-76
2020/12/14 15:07:03;;;;;;;3.27;2.07;;;11.80;99.90;;;;;;4994266;28;20251;-76
2020/12/14 15:09:29;;;;;;;3.87;2.20;;;11.80;99.90;;;;;;4994043;28;20176;-76
2020/12/14 15:11:54;;;;;;;4.00;2.23;;;11.80;99.90;;;;;;4994051;28;20802;-76
2020/12/14 15:14:21;;;;;;;4.43;2.30;;;11.80;99.90;;;;;;4993323;28;20256;-76
2020/12/14 15:16:46;;;;;;;2.50;2.00;;;11.70;99.90;;;;;;4993191;28;20181;-76
2020/12/14 15:19:12;;;;;;;6.00;2.40;;;11.80;99.90;;;;;;4992923;28;20499;-76
2020/12/14 15:21:38;;;;;;;4.40;2.07;;;11.70;99.90;;;;;;4993044;28;20234;-76
2020/12/14 15:24:04;;;;;;;4.80;2.67;;;11.70;99.90;;;;;;4992983;28;20818;-76
2020/12/14 15:26:30;;;;;;;1.97;1.73;;;11.70;99.90;;;;;;4993071;28;20239;-76
2020/12/14 15:28:56;;;;;;;2.33;2.10;;;11.60;99.90;;;;;;4992889;28;20456;-76
2020/12/14 15:31:21;;;;;;;4.17;2.23;;;11.60;99.90;;;;;;4993098;28;20431;-76
2020/12/14 15:33:47;;;;;;;4.50;2.40;;;11.60;99.90;;;;;;4993040;28;20165;-77
2020/12/14 15:36:15;;;;;;;3.17;1.63;;;11.60;99.90;;;;;;4993006;28;20667;-73
2020/12/14 15:38:42;;;;;;;3.57;2.03;;;11.50;99.90;;;;;;4992670;28;20588;-76
2020/12/14 15:41:09;;;;;;;4.15;2.60;;;11.60;99.90;;;;;;4992254;28;20428;-77
2020/12/14 15:43:35;;;;;;;3.63;2.23;;;11.60;99.90;;;;;;4992707;28;20181;-77
2020/12/14 15:46:01;;;;;;;3.80;2.10;;;11.60;99.90;;;;;;4991514;28;20437;-77
2020/12/14 15:48:26;;;;;;;2.73;2.00;;;11.50;99.90;;;;;;4993165;28;20179;-77
2020/12/14 15:50:52;;;;;;;3.87;1.93;;;11.50;99.90;;;;;;4993394;28;20175;-77
2020/12/14 15:53:17;;;;;;;2.50;2.27;;;11.60;99.90;;;;;;4993459;28;20185;-77
2020/12/14 15:55:42;;;;;;;5.30;2.50;;;11.60;99.90;;;;;;4993739;28;20195;-77
2020/12/14 15:58:09;;;;;;;3.50;2.27;;;11.60;99.90;;;;;;4993527;28;20177;-77
2020/12/14 16:00:35;;;;;;;6.20;2.93;;;11.50;99.90;;;;;;4993557;28;20204;-77
2020/12/14 16:03:01;;;;;;;3.50;2.50;;;11.50;99.90;;;;;;4993478;28;20439;-77
2020/12/14 16:05:27;;;;;;;3.57;2.50;;;11.50;99.90;;;;;;4993445;28;20455;-77
2020/12/14 16:07:56;;;;;;;2.50;2.00;;;11.50;99.90;;;;;;4993450;28;20185;-77
2020/12/14 16:10:33;;;;;;;3.67;2.50;;;11.50;99.90;;;;;;4993637;28;20811;-77
2020/12/14 16:12:59;;;;;;;4.80;2.27;;;11.60;99.90;;;;;;4993359;28;20470;-77
2020/12/14 16:15:25;;;;;;;1.97;1.80;;;11.50;99.90;;;;;;4993539;28;20424;-77
2020/12/14 16:17:51;;;;;;;2.43;1.87;;;11.50;99.90;;;;;;4993280;28;20419;-76
2020/12/14 16:20:17;;;;;;;4.03;2.53;;;11.40;99.90;;;;;;4993338;28;20304;-78
2020/12/14 16:22:43;;;;;;;3.30;2.53;;;11.40;99.90;;;;;;4993511;28;20495;-79
2020/12/14 16:25:09;;;;;;;2.73;2.40;;;11.40;99.90;;;;;;4993253;28;20842;-78
2020/12/14 16:27:36;;;;;;;3.17;2.00;;;11.40;99.90;;;;;;4993267;28;20472;-77
2020/12/14 16:30:03;;;;;;;3.37;2.03;;;11.40;99.90;;;;;;4993292;28;20556;-77
2020/12/14 16:32:29;;;;;;;3.23;2.53;;;11.50;99.90;;;;;;4993378;28;20438;-78
2020/12/14 16:34:55;;;;;;;3.40;2.40;;;11.60;99.90;;;;;;4993737;28;20933;-78
2020/12/14 16:37:21;;;;;;;4.23;2.60;;;11.60;99.90;;;;;;4994201;28;20790;-82
2020/12/14 16:39:47;;;;;;;7.23;3.13;;;11.50;99.90;;;;;;4999735;28;20428;-79
2020/12/14 16:42:12;;;;;;;4.70;2.00;;;11.50;99.90;;;;;;4996236;28;20708;-78
2020/12/14 16:44:38;;;;;;;3.57;2.27;;;11.50;99.90;;;;;;4992636;28;20227;-77
2020/12/14 16:47:05;;;;;;;3.90;2.27;;;11.50;99.90;;;;;;4992321;28;20616;-78
2020/12/14 16:49:30;;;;;;;3.50;2.20;;;11.50;99.90;;;;;;4993524;28;20184;-78
2020/12/14 16:51:55;;;;;;;3.70;1.77;;;11.50;99.90;;;;;;4995754;28;20432;-75
2020/12/14 16:54:22;;;;;;;2.80;2.53;;;11.50;99.90;;;;;;4995702;28;20536;-77
2020/12/14 16:56:51;;;;;;;3.73;2.90;;;11.50;99.90;;;;;;4995833;28;20261;-82
2020/12/14 16:59:18;;;;;;;3.80;2.10;;;11.50;99.90;;;;;;4996090;28;20428;-86
2020/12/14 17:01:44;;;;;;;3.33;2.27;;;11.60;99.90;;;;;;4995832;28;20433;-76
2020/12/14 17:04:13;;;;;;;4.43;2.80;;;11.60;99.90;;;;;;4995629;28;20523;-80
2020/12/14 17:06:41;;;;;;;4.10;2.10;;;11.60;99.90;;;;;;4995432;28;20841;-77
2020/12/14 17:09:07;;;;;;;4.30;2.50;;;11.60;99.90;;;;;;4995455;28;20931;-80
2020/12/14 17:11:32;;;;;;;5.80;2.37;;;11.50;99.90;;;;;;4995413;28;20439;-79